sensor_id;sensor_type;location;lat;lon;timestamp;temperature;humidity
20829;DHT22;10575;50.124;8.582;2024-02-15T00:01:57;11.50;99.90
20829;DHT22;10575;50.124;8.582;2024-02-15T00:04:22;11.50;99.90
20829;DHT22;10575;50.124;8.582;2024-02-15T00:06:48;11.40;99.90
20829;DHT22;10575;50.124;8.582;2024-02-15T00:09:13;11.40;99.90
20829;DHT22;10575;50.124;8.582;2024-02-15T00:11:39;11.50;99.90
20829;DHT22;10575;50.124;8.582;2024-02-15T00:14:05;11.50;99.90
20829;DHT22;10575;50.124;8.582;2024-02-15T00:16:30;11.50;99.90
20829;DHT22;10575;50.124;8.582;2024-02-15T00:18:56;11.40;99.90
20829;DHT22;10575;50.124;8.582;2024-02-15T00:21:22;11.40;99.90
20829;DHT22;10575;50.124;8.582;2024-02-15T00:23:48;11.40;99.90
20829;DHT22;10575;50.124;8.582;2024-02-15T00:26:14;11.40;99.90
20829;DHT22;10575;50.124;8.582;2024-02-15T00:28:41;11.40;99.90
20829;DHT22;10575;50.124;8.582;2024-02-15T00:31:08;11.40;99.90
20829;DHT22;10575;50.124;8.582;2024-02-15T00:33:33;11.40;99.90
20829;DHT22;10575;50.124;8.582;2024-02-15T00:36:02;11.40;99.90
20829;DHT22;10575;50.124;8.582;2024-02-15T00:38:29;11.40;99.90
20829;DHT22;10575;50.124;8.582;2024-02-15T00:40:55;11.40;99.90
20829;DHT22;10575;50.124;8.582;2024-02-15T00:43:20;11.40;99.90
20829;DHT22;10575;50.124;8.582;2024-02-15T00:45:46;11.40;99.90
20829;DHT22;10575;50.124;8.582;2024-02-15T00:48:12;11.40;99.90
20829;DHT22;10575;50.124;8.582;2024-02-15T00:50:38;11.40;99.90
20829;DHT22;10575;50.124;8.582;2024-02-15T00:53:03;11.40;99.90
20829;DHT22;10575;50.124;8.582;2024-02-15T00:55:29;11.40;99.90
20829;DHT22;10575;50.124;8.582;2024-02-15T00:57:54;11.40;99.90
20829;DHT22;10575;50.124;8.582;2024-02-15T01:00:20;11.40;99.90
20829;DHT22;10575;50.124;8.582;2024-02-15T01:02:46;11.40;99.90
20829;DHT22;10575;50.124;8.582;2024-02-15T01:05:11;11.50;99.90
20829;DHT22;10575;50.124;8.582;2024-02-15T01:07:37;11.50;99.90
20829;DHT22;10575;50.124;8.582;2024-02-15T01:10:02;11.50;99.90
20829;DHT22;10575;50.124;8.582;2024-02-15T01:12:28;11.50;99.90
20829;DHT22;10575;50.124;8.582;2024-02-15T01:14:54;11.50;99.90
20829;DHT22;10575;50.124;8.582;2024-02-15T01:17:21;11.50;99.90
20829;DHT22;10575;50.124;8.582;2024-02-15T01:19:47;11.50;99.90
20829;DHT22;10575;50.124;8.582;2024-02-15T01:22:12;11.50;99.90
20829;DHT22;10575;50.124;8.582;2024-02-15T01:24:38;11.50;99.90
20829;DHT22;10575;50.124;8.582;2024-02-15T01:27:04;11.50;99.90
20829;DHT22;10575;50.124;8.582;2024-02-15T01:29:29;11.50;99.90
20829;DHT22;10575;50.124;8.582;2024-02-15T01:31:55;11.60;99.90
20829;DHT22;10575;50.124;8.582;2024-02-15T01:34:21;11.60;99.90
20829;DHT22;10575;50.124;8.582;2024-02-15T01:36:48;11.60;99.90
20829;DHT22;10575;50.124;8.582;2024-02-15T01:39:13;11.60;99.90
20829;DHT22;10575;50.124;8.582;2024-02-15T01:41:39;11.50;99.90
20829;DHT22;10575;50.124;8.582;2024-02-15T01:44:04;11.50;99.90
20829;DHT22;10575;50.124;8.582;2024-02-15T01:46:32;11.40;99.90
20829;DHT22;10575;50.124;8.582;2024-02-15T01:48:57;11.40;99.90
20829;DHT22;10575;50.124;8.582;2024-02-15T01:51:24;11.40;99.90
20829;DHT22;10575;50.124;8.582;2024-02-15T01:53:50;11.40;99.90
20829;DHT22;10575;50.124;8.582;2024-02-15T01:56:16;11.40;99.90
20829;DHT22;10575;50.124;8.582;2024-02-15T01:58:43;11.40;99.90
20829;DHT22;10575;50.124;8.582;2024-02-15T02:01:11;11.40;99.90
20829;DHT22;10575;50.124;8.582;2024-02-15T02:03:37;11.40;99.90
20829;DHT22;10575;50.124;8.582;2024-02-15T02:06:04;11.40;99.90
20829;DHT22;10575;50.124;8.582;2024-02-15T02:08:30;11.40;99.90
20829;DHT22;10575;50.124;8.582;2024-02-15T02:10:56;11.30;99.90
20829;DHT22;10575;50.124;8.582;2024-02-15T02:13:22;11.20;99.90
20829;DHT22;10575;50.124;8.582;2024-02-15T02:15:48;11.20;99.90
20829;DHT22;10575;50.124;8.582;2024-02-15T02:18:14;11.10;99.90
20829;DHT22;10575;50.124;8.582;2024-02-15T02:20:39;11.00;99.90
20829;DHT22;10575;50.124;8.582;2024-02-15T02:23:09;11.00;99.90
20829;DHT22;10575;50.124;8.582;2024-02-15T02:25:38;11.00;99.90
20829;DHT22;10575;50.124;8.582;2024-02-15T02:28:04;10.90;99.90
20829;DHT22;10575;50.124;8.582;2024-02-15T02:30:31;10.90;99.90
20829;DHT22;10575;50.124;8.582;2024-02-15T02:32:57;10.90;99.90
20829;DHT22;10575;50.124;8.582;2024-02-15T02:35:24;11.00;99.90
20829;DHT22;10575;50.124;8.582;2024-02-15T02:37:50;11.00;99.90
20829;DHT22;10575;50.124;8.582;2024-02-15T02:40:18;10.90;99.90
20829;DHT22;10575;50.124;8.582;2024-02-15T02:42:51;11.10;99.90
20829;DHT22;10575;50.124;8.582;2024-02-15T02:45:17;11.10;99.90
20829;DHT22;10575;50.124;8.582;2024-02-15T02:47:45;11.20;99.90
20829;DHT22;10575;50.124;8.582;2024-02-15T02:50:12;11.20;99.90
20829;DHT22;10575;50.124;8.582;2024-02-15T02:52:38;11.20;99.90
20829;DHT22;10575;50.124;8.582;2024-02-15T02:55:04;11.20;99.90
20829;DHT22;10575;50.124;8.582;2024-02-15T02:57:39;11.20;99.90
20829;DHT22;10575;50.124;8.582;2024-02-15T03:00:06;11.20;99.90
20829;DHT22;10575;50.124;8.582;2024-02-15T03:02:41;11.20;99.90
20829;DHT22;10575;50.124;8.582;2024-02-15T03:05:08;11.10;99.90
20829;DHT22;10575;50.124;8.582;2024-02-15T03:07:34;11.20;99.90
20829;DHT22;10575;50.124;8.582;2024-02-15T03:10:04;11.20;99.90
20829;DHT22;10575;50.124;8.582;2024-02-15T03:12:30;11.30;99.90
20829;DHT22;10575;50.124;8.582;2024-02-15T03:14:58;11.30;99.90
20829;DHT22;10575;50.124;8.582;2024-02-15T03:17:24;11.20;99.90
20829;DHT22;10575;50.124;8.582;2024-02-15T03:19:52;11.20;99.90
20829;DHT22;10575;50.124;8.582;2024-02-15T03:22:17;11.20;99.90
20829;DHT22;10575;50.124;8.582;2024-02-15T03:24:43;11.10;99.90
20829;DHT22;10575;50.124;8.582;2024-02-15T03:27:11;11.10;99.90
20829;DHT22;10575;50.124;8.582;2024-02-15T03:29:37;11.20;99.90
20829;DHT22;10575;50.124;8.582;2024-02-15T03:32:03;11.20;99.90
20829;DHT22;10575;50.124;8.582;2024-02-15T03:34:30;11.20;99.90
20829;DHT22;10575;50.124;8.582;2024-02-15T03:36:56;11.20;99.90
20829;DHT22;10575;50.124;8.582;2024-02-15T03:39:23;11.20;99.90
20829;DHT22;10575;50.124;8.582;2024-02-15T03:41:49;11.20;99.90
20829;DHT22;10575;50.124;8.582;2024-02-15T03:44:14;11.20;99.90
20829;DHT22;10575;50.124;8.582;2024-02-15T03:46:40;11.20;99.90
20829;DHT22;10575;50.124;8.582;2024-02-15T03:49:06;11.20;99.90
20829;DHT22;10575;50.124;8.582;2024-02-15T03:51:35;11.20;99.90
20829;DHT22;10575;50.124;8.582;2024-02-15T03:54:01;11.20;99.90
20829;DHT22;10575;50.124;8.582;2024-02-15T03:56:29;11.20;99.90
20829;DHT22;10575;50.124;8.582;2024-02-15T03:58:54;11.10;99.90
20829;DHT22;10575;50.124;8.582;2024-02-15T04:01:20;11.10;99.90
20829;DHT22;10575;50.124;8.582;2024-02-15T04:03:45;11.10;99.90
20829;DHT22;10575;50.124;8.582;2024-02-15T04:06:13;11.10;99.90
20829;DHT22;10575;50.124;8.582;2024-02-15T04:08:38;11.10;99.90
20829;DHT22;10575;50.124;8.582;2024-02-15T04:11:07;11.10;99.90
20829;DHT22;10575;50.124;8.582;2024-02-15T04:13:34;11.00;99.90
20829;DHT22;10575;50.124;8.582;2024-02-15T04:16:02;11.10;99.90
20829;DHT22;10575;50.124;8.582;2024-02-15T04:18:28;11.00;99.90
20829;DHT22;10575;50.124;8.582;2024-02-15T04:20:57;11.10;99.90
20829;DHT22;10575;50.124;8.582;2024-02-15T04:23:24;11.00;99.90
20829;DHT22;10575;50.124;8.582;2024-02-15T04:25:49;11.10;99.90
20829;DHT22;10575;50.124;8.582;2024-02-15T04:28:17;11.00;99.90
20829;DHT22;10575;50.124;8.582;2024-02-15T04:30:42;11.00;99.90
20829;DHT22;10575;50.124;8.582;2024-02-15T04:33:08;11.00;99.90
20829;DHT22;10575;50.124;8.582;2024-02-15T04:35:34;11.10;99.90
20829;DHT22;10575;50.124;8.582;2024-02-15T04:37:59;11.00;99.90
20829;DHT22;10575;50.124;8.582;2024-02-15T04:40:25;11.00;99.90
20829;DHT22;10575;50.124;8.582;2024-02-15T04:42:51;11.00;99.90
20829;DHT22;10575;50.124;8.582;2024-02-15T04:45:16;11.00;99.90
20829;DHT22;10575;50.124;8.582;2024-02-15T04:47:42;11.00;99.90
20829;DHT22;10575;50.124;8.582;2024-02-15T04:50:09;11.10;99.90
20829;DHT22;10575;50.124;8.582;2024-02-15T04:52:35;11.10;99.90
20829;DHT22;10575;50.124;8.582;2024-02-15T04:55:01;11.10;99.90
20829;DHT22;10575;50.124;8.582;2024-02-15T04:57:30;11.00;99.90
20829;DHT22;10575;50.124;8.582;2024-02-15T04:59:55;11.00;99.90
20829;DHT22;10575;50.124;8.582;2024-02-15T05:02:21;10.90;99.90
20829;DHT22;10575;50.124;8.582;2024-02-15T05:04:50;10.90;99.90
20829;DHT22;10575;50.124;8.582;2024-02-15T05:07:20;10.90;99.90
20829;DHT22;10575;50.124;8.582;2024-02-15T05:09:48;10.90;99.90
20829;DHT22;10575;50.124;8.582;2024-02-15T05:12:24;10.90;99.90
20829;DHT22;10575;50.124;8.582;2024-02-15T05:14:50;10.90;99.90
20829;DHT22;10575;50.124;8.582;2024-02-15T05:17:18;10.80;99.90
20829;DHT22;10575;50.124;8.582;2024-02-15T05:19:44;10.80;99.90
20829;DHT22;10575;50.124;8.582;2024-02-15T05:22:10;10.90;99.90
20829;DHT22;10575;50.124;8.582;2024-02-15T05:24:36;10.90;99.90
20829;DHT22;10575;50.124;8.582;2024-02-15T05:27:04;10.90;99.90
20829;DHT22;10575;50.124;8.582;2024-02-15T05:29:30;10.90;99.90
20829;DHT22;10575;50.124;8.582;2024-02-15T05:31:59;10.90;99.90
20829;DHT22;10575;50.124;8.582;2024-02-15T05:34:25;10.90;99.90
20829;DHT22;10575;50.124;8.582;2024-02-15T05:36:50;10.90;99.90
20829;DHT22;10575;50.124;8.582;2024-02-15T05:39:19;11.00;99.90
20829;DHT22;10575;50.124;8.582;2024-02-15T05:41:47;10.90;99.90
20829;DHT22;10575;50.124;8.582;2024-02-15T05:44:13;10.90;99.90
20829;DHT22;10575;50.124;8.582;2024-02-15T05:46:40;10.90;99.90
20829;DHT22;10575;50.124;8.582;2024-02-15T05:49:06;10.90;99.90
20829;DHT22;10575;50.124;8.582;2024-02-15T05:51:31;11.00;99.90
20829;DHT22;10575;50.124;8.582;2024-02-15T05:53:59;11.00;99.90
20829;DHT22;10575;50.124;8.582;2024-02-15T05:56:25;11.00;99.90
20829;DHT22;10575;50.124;8.582;2024-02-15T05:58:51;11.00;99.90
20829;DHT22;10575;50.124;8.582;2024-02-15T06:01:17;11.00;99.90
20829;DHT22;10575;50.124;8.582;2024-02-15T06:03:42;11.00;99.90
20829;DHT22;10575;50.124;8.582;2024-02-15T06:06:09;10.90;99.90
20829;DHT22;10575;50.124;8.582;2024-02-15T06:08:37;11.00;99.90
20829;DHT22;10575;50.124;8.582;2024-02-15T06:11:03;11.00;99.90
20829;DHT22;10575;50.124;8.582;2024-02-15T06:13:31;10.90;99.90
20829;DHT22;10575;50.124;8.582;2024-02-15T06:15:59;11.00;99.90
20829;DHT22;10575;50.124;8.582;2024-02-15T06:18:27;11.00;99.90
20829;DHT22;10575;50.124;8.582;2024-02-15T06:20:55;10.90;99.90
20829;DHT22;10575;50.124;8.582;2024-02-15T06:23:23;11.00;99.90
20829;DHT22;10575;50.124;8.582;2024-02-15T06:25:51;11.00;99.90
20829;DHT22;10575;50.124;8.582;2024-02-15T06:28:20;11.00;99.90
20829;DHT22;10575;50.124;8.582;2024-02-15T06:31:09;10.90;99.90
20829;DHT22;10575;50.124;8.582;2024-02-15T06:33:55;11.00;99.90
20829;DHT22;10575;50.124;8.582;2024-02-15T06:36:49;11.00;99.90
20829;DHT22;10575;50.124;8.582;2024-02-15T06:39:35;10.90;99.90
20829;DHT22;10575;50.124;8.582;2024-02-15T06:42:04;10.90;99.90
20829;DHT22;10575;50.124;8.582;2024-02-15T06:44:29;10.90;99.90
20829;DHT22;10575;50.124;8.582;2024-02-15T06:46:55;10.90;99.90
20829;DHT22;10575;50.124;8.582;2024-02-15T06:49:22;10.80;99.90
20829;DHT22;10575;50.124;8.582;2024-02-15T06:51:50;10.90;99.90
20829;DHT22;10575;50.124;8.582;2024-02-15T06:54:16;11.00;99.90
20829;DHT22;10575;50.124;8.582;2024-02-15T06:56:46;11.00;99.90
20829;DHT22;10575;50.124;8.582;2024-02-15T06:59:13;11.00;99.90
20829;DHT22;10575;50.124;8.582;2024-02-15T07:01:45;11.00;99.90
20829;DHT22;10575;50.124;8.582;2024-02-15T07:04:11;11.00;99.90
20829;DHT22;10575;50.124;8.582;2024-02-15T07:06:37;11.10;99.90
20829;DHT22;10575;50.124;8.582;2024-02-15T07:09:04;11.20;99.90
20829;DHT22;10575;50.124;8.582;2024-02-15T07:11:31;11.20;99.90
20829;DHT22;10575;50.124;8.582;2024-02-15T07:13:57;11.10;99.90
20829;DHT22;10575;50.124;8.582;2024-02-15T07:16:22;11.10;99.90
20829;DHT22;10575;50.124;8.582;2024-02-15T07:18:48;11.20;99.90
20829;DHT22;10575;50.124;8.582;2024-02-15T07:21:14;11.20;99.90
20829;DHT22;10575;50.124;8.582;2024-02-15T07:23:42;11.30;99.90
20829;DHT22;10575;50.124;8.582;2024-02-15T07:26:08;11.30;99.90
20829;DHT22;10575;50.124;8.582;2024-02-15T07:28:33;11.30;99.90
20829;DHT22;10575;50.124;8.582;2024-02-15T07:30:59;11.30;99.90
20829;DHT22;10575;50.124;8.582;2024-02-15T07:33:28;11.30;99.90
20829;DHT22;10575;50.124;8.582;2024-02-15T07:35:56;11.40;99.90
20829;DHT22;10575;50.124;8.582;2024-02-15T07:38:22;11.50;99.90
20829;DHT22;10575;50.124;8.582;2024-02-15T07:40:48;11.60;99.90
20829;DHT22;10575;50.124;8.582;2024-02-15T07:43:14;11.60;99.90
20829;DHT22;10575;50.124;8.582;2024-02-15T07:45:40;11.70;99.90
20829;DHT22;10575;50.124;8.582;2024-02-15T07:48:08;11.80;99.90
20829;DHT22;10575;50.124;8.582;2024-02-15T07:50:34;12.00;99.90
20829;DHT22;10575;50.124;8.582;2024-02-15T07:53:03;12.00;99.90
20829;DHT22;10575;50.124;8.582;2024-02-15T07:55:28;12.10;99.90
20829;DHT22;10575;50.124;8.582;2024-02-15T07:57:54;12.20;99.90
20829;DHT22;10575;50.124;8.582;2024-02-15T08:00:21;12.30;99.90
20829;DHT22;10575;50.124;8.582;2024-02-15T08:02:46;12.40;99.90
20829;DHT22;10575;50.124;8.582;2024-02-15T08:05:13;12.50;99.90
20829;DHT22;10575;50.124;8.582;2024-02-15T08:07:44;12.50;99.90
20829;DHT22;10575;50.124;8.582;2024-02-15T08:10:13;12.60;99.90
20829;DHT22;10575;50.124;8.582;2024-02-15T08:12:43;12.70;99.90
20829;DHT22;10575;50.124;8.582;2024-02-15T08:15:12;12.60;99.90
20829;DHT22;10575;50.124;8.582;2024-02-15T08:17:41;12.60;99.90
20829;DHT22;10575;50.124;8.582;2024-02-15T08:20:10;12.60;99.90
20829;DHT22;10575;50.124;8.582;2024-02-15T08:22:35;12.50;99.90
20829;DHT22;10575;50.124;8.582;2024-02-15T08:25:13;12.40;99.90
20829;DHT22;10575;50.124;8.582;2024-02-15T08:27:46;12.50;99.90
20829;DHT22;10575;50.124;8.582;2024-02-15T08:30:15;12.80;99.90
20829;DHT22;10575;50.124;8.582;2024-02-15T08:32:41;12.70;99.90
20829;DHT22;10575;50.124;8.582;2024-02-15T08:35:11;12.80;99.90
20829;DHT22;10575;50.124;8.582;2024-02-15T08:37:37;12.90;99.90
20829;DHT22;10575;50.124;8.582;2024-02-15T08:40:04;13.10;99.90
20829;DHT22;10575;50.124;8.582;2024-02-15T08:42:39;13.30;99.90
20829;DHT22;10575;50.124;8.582;2024-02-15T08:45:05;13.30;99.90
20829;DHT22;10575;50.124;8.582;2024-02-15T08:47:35;13.40;99.90
20829;DHT22;10575;50.124;8.582;2024-02-15T08:50:03;13.50;99.90
20829;DHT22;10575;50.124;8.582;2024-02-15T08:52:28;13.70;99.90
20829;DHT22;10575;50.124;8.582;2024-02-15T08:54:54;13.70;99.90
20829;DHT22;10575;50.124;8.582;2024-02-15T08:57:21;13.80;99.90
20829;DHT22;10575;50.124;8.582;2024-02-15T08:59:48;13.80;99.90
20829;DHT22;10575;50.124;8.582;2024-02-15T09:02:14;13.80;99.90
20829;DHT22;10575;50.124;8.582;2024-02-15T09:04:39;13.90;99.90
20829;DHT22;10575;50.124;8.582;2024-02-15T09:07:06;13.80;99.90
20829;DHT22;10575;50.124;8.582;2024-02-15T09:09:33;13.80;99.90
20829;DHT22;10575;50.124;8.582;2024-02-15T09:12:01;14.00;99.90
20829;DHT22;10575;50.124;8.582;2024-02-15T09:14:31;14.10;99.90
20829;DHT22;10575;50.124;8.582;2024-02-15T09:16:57;14.40;99.90
20829;DHT22;10575;50.124;8.582;2024-02-15T09:19:23;14.50;99.90
20829;DHT22;10575;50.124;8.582;2024-02-15T09:21:49;14.30;99.90
20829;DHT22;10575;50.124;8.582;2024-02-15T09:24:15;14.60;99.90
20829;DHT22;10575;50.124;8.582;2024-02-15T09:26:41;14.70;99.90
20829;DHT22;10575;50.124;8.582;2024-02-15T09:29:08;15.10;99.90
20829;DHT22;10575;50.124;8.582;2024-02-15T09:31:33;15.50;99.90
20829;DHT22;10575;50.124;8.582;2024-02-15T09:34:01;15.70;99.90
20829;DHT22;10575;50.124;8.582;2024-02-15T09:36:27;16.10;99.90
20829;DHT22;10575;50.124;8.582;2024-02-15T09:38:53;16.50;99.90
20829;DHT22;10575;50.124;8.582;2024-02-15T09:41:19;16.70;99.90
20829;DHT22;10575;50.124;8.582;2024-02-15T09:43:45;16.80;99.90
20829;DHT22;10575;50.124;8.582;2024-02-15T09:46:10;16.70;99.90
20829;DHT22;10575;50.124;8.582;2024-02-15T09:48:39;16.40;99.90
20829;DHT22;10575;50.124;8.582;2024-02-15T09:51:07;16.20;99.90
20829;DHT22;10575;50.124;8.582;2024-02-15T09:53:33;16.10;99.90
20829;DHT22;10575;50.124;8.582;2024-02-15T09:56:00;16.00;99.90
20829;DHT22;10575;50.124;8.582;2024-02-15T09:58:30;16.00;99.90
20829;DHT22;10575;50.124;8.582;2024-02-15T10:01:01;15.90;99.90
20829;DHT22;10575;50.124;8.582;2024-02-15T10:03:30;16.00;99.90
20829;DHT22;10575;50.124;8.582;2024-02-15T10:05:56;15.70;99.90
20829;DHT22;10575;50.124;8.582;2024-02-15T10:08:23;15.80;99.90
20829;DHT22;10575;50.124;8.582;2024-02-15T10:11:05;15.80;99.90
20829;DHT22;10575;50.124;8.582;2024-02-15T10:13:32;15.90;99.90
20829;DHT22;10575;50.124;8.582;2024-02-15T10:15:58;15.90;99.90
20829;DHT22;10575;50.124;8.582;2024-02-15T10:18:24;15.90;99.90
20829;DHT22;10575;50.124;8.582;2024-02-15T10:20:58;15.70;99.90
20829;DHT22;10575;50.124;8.582;2024-02-15T10:23:24;15.60;99.90
20829;DHT22;10575;50.124;8.582;2024-02-15T10:25:49;15.60;99.90
20829;DHT22;10575;50.124;8.582;2024-02-15T10:28:20;15.70;99.90
20829;DHT22;10575;50.124;8.582;2024-02-15T10:30:49;15.90;99.90
20829;DHT22;10575;50.124;8.582;2024-02-15T10:33:28;15.90;99.90
20829;DHT22;10575;50.124;8.582;2024-02-15T10:36:10;15.70;99.90
20829;DHT22;10575;50.124;8.582;2024-02-15T10:38:39;15.60;99.90
20829;DHT22;10575;50.124;8.582;2024-02-15T10:41:07;15.40;99.90
20829;DHT22;10575;50.124;8.582;2024-02-15T10:43:34;15.20;99.90
20829;DHT22;10575;50.124;8.582;2024-02-15T10:46:00;15.00;99.90
20829;DHT22;10575;50.124;8.582;2024-02-15T10:48:26;14.90;99.90
20829;DHT22;10575;50.124;8.582;2024-02-15T10:50:56;14.80;99.90
20829;DHT22;10575;50.124;8.582;2024-02-15T10:53:27;14.80;99.90
20829;DHT22;10575;50.124;8.582;2024-02-15T10:58:32;14.60;99.90
20829;DHT22;10575;50.124;8.582;2024-02-15T11:01:00;14.50;99.90
20829;DHT22;10575;50.124;8.582;2024-02-15T11:03:32;14.60;99.90
20829;DHT22;10575;50.124;8.582;2024-02-15T11:06:02;14.70;99.90
20829;DHT22;10575;50.124;8.582;2024-02-15T11:08:31;14.80;99.90
20829;DHT22;10575;50.124;8.582;2024-02-15T11:10:57;14.90;99.90
20829;DHT22;10575;50.124;8.582;2024-02-15T11:13:24;15.10;99.90
20829;DHT22;10575;50.124;8.582;2024-02-15T11:15:50;15.30;99.90
20829;DHT22;10575;50.124;8.582;2024-02-15T11:18:42;15.30;99.90
20829;DHT22;10575;50.124;8.582;2024-02-15T11:21:12;15.50;99.90
20829;DHT22;10575;50.124;8.582;2024-02-15T11:23:37;15.60;99.90
20829;DHT22;10575;50.124;8.582;2024-02-15T11:26:04;15.50;99.90
20829;DHT22;10575;50.124;8.582;2024-02-15T11:30:56;15.50;99.90
20829;DHT22;10575;50.124;8.582;2024-02-15T11:33:34;15.70;99.90
20829;DHT22;10575;50.124;8.582;2024-02-15T11:36:10;15.80;99.90
20829;DHT22;10575;50.124;8.582;2024-02-15T11:38:37;15.80;99.90
20829;DHT22;10575;50.124;8.582;2024-02-15T11:41:06;15.90;99.90
20829;DHT22;10575;50.124;8.582;2024-02-15T11:46:20;15.80;99.90
20829;DHT22;10575;50.124;8.582;2024-02-15T11:48:50;15.70;99.90
20829;DHT22;10575;50.124;8.582;2024-02-15T11:51:26;15.70;99.90
20829;DHT22;10575;50.124;8.582;2024-02-15T11:54:21;15.70;99.90
20829;DHT22;10575;50.124;8.582;2024-02-15T11:56:51;15.70;99.90
20829;DHT22;10575;50.124;8.582;2024-02-15T11:59:22;15.60;99.90
20829;DHT22;10575;50.124;8.582;2024-02-15T12:01:58;15.80;99.90
20829;DHT22;10575;50.124;8.582;2024-02-15T12:04:43;15.90;99.90
20829;DHT22;10575;50.124;8.582;2024-02-15T12:07:28;16.00;99.90
20829;DHT22;10575;50.124;8.582;2024-02-15T12:10:19;16.00;99.90
20829;DHT22;10575;50.124;8.582;2024-02-15T12:13:03;16.00;99.90
20829;DHT22;10575;50.124;8.582;2024-02-15T12:15:57;16.10;99.90
20829;DHT22;10575;50.124;8.582;2024-02-15T12:18:42;16.20;99.90
20829;DHT22;10575;50.124;8.582;2024-02-15T12:21:09;16.20;99.90
20829;DHT22;10575;50.124;8.582;2024-02-15T12:23:45;16.10;99.90
20829;DHT22;10575;50.124;8.582;2024-02-15T12:26:11;16.20;99.90
20829;DHT22;10575;50.124;8.582;2024-02-15T12:28:40;16.20;99.90
20829;DHT22;10575;50.124;8.582;2024-02-15T12:31:08;16.40;99.90
20829;DHT22;10575;50.124;8.582;2024-02-15T12:33:35;16.40;99.90
20829;DHT22;10575;50.124;8.582;2024-02-15T12:36:05;16.40;99.90
20829;DHT22;10575;50.124;8.582;2024-02-15T12:38:34;16.50;99.90
20829;DHT22;10575;50.124;8.582;2024-02-15T12:41:23;16.50;99.90
20829;DHT22;10575;50.124;8.582;2024-02-15T12:43:54;16.40;99.90
20829;DHT22;10575;50.124;8.582;2024-02-15T12:46:24;16.30;99.90
20829;DHT22;10575;50.124;8.582;2024-02-15T12:49:06;16.30;99.90
20829;DHT22;10575;50.124;8.582;2024-02-15T12:51:32;16.40;99.90
20829;DHT22;10575;50.124;8.582;2024-02-15T12:54:08;16.50;99.90
20829;DHT22;10575;50.124;8.582;2024-02-15T12:56:34;16.40;99.90
20829;DHT22;10575;50.124;8.582;2024-02-15T12:59:01;16.30;99.90
20829;DHT22;10575;50.124;8.582;2024-02-15T13:01:28;16.20;99.90
20829;DHT22;10575;50.124;8.582;2024-02-15T13:03:54;16.30;99.90
20829;DHT22;10575;50.124;8.582;2024-02-15T13:06:20;16.10;99.90
20829;DHT22;10575;50.124;8.582;2024-02-15T13:08:49;16.10;99.90
20829;DHT22;10575;50.124;8.582;2024-02-15T13:11:15;16.20;99.90
20829;DHT22;10575;50.124;8.582;2024-02-15T13:13:41;16.10;99.90
20829;DHT22;10575;50.124;8.582;2024-02-15T13:16:07;16.00;99.90
20829;DHT22;10575;50.124;8.582;2024-02-15T13:18:33;16.00;99.90
20829;DHT22;10575;50.124;8.582;2024-02-15T13:20:59;16.10;99.90
20829;DHT22;10575;50.124;8.582;2024-02-15T13:23:24;16.10;99.90
20829;DHT22;10575;50.124;8.582;2024-02-15T13:25:53;16.20;99.90
20829;DHT22;10575;50.124;8.582;2024-02-15T13:28:19;16.20;99.90
20829;DHT22;10575;50.124;8.582;2024-02-15T13:33:20;16.20;99.90
20829;DHT22;10575;50.124;8.582;2024-02-15T13:35:45;16.20;99.90
20829;DHT22;10575;50.124;8.582;2024-02-15T13:38:11;16.10;99.90
20829;DHT22;10575;50.124;8.582;2024-02-15T13:40:40;16.10;99.90
20829;DHT22;10575;50.124;8.582;2024-02-15T13:43:07;15.90;99.90
20829;DHT22;10575;50.124;8.582;2024-02-15T13:45:38;15.90;99.90
20829;DHT22;10575;50.124;8.582;2024-02-15T13:48:05;15.90;99.90
20829;DHT22;10575;50.124;8.582;2024-02-15T13:50:33;16.00;99.90
20829;DHT22;10575;50.124;8.582;2024-02-15T13:52:59;16.00;99.90
20829;DHT22;10575;50.124;8.582;2024-02-15T13:55:25;16.00;99.90
20829;DHT22;10575;50.124;8.582;2024-02-15T13:57:51;15.80;99.90
20829;DHT22;10575;50.124;8.582;2024-02-15T14:00:18;15.70;99.90
20829;DHT22;10575;50.124;8.582;2024-02-15T14:02:51;15.70;99.90
20829;DHT22;10575;50.124;8.582;2024-02-15T14:05:18;15.70;99.90
20829;DHT22;10575;50.124;8.582;2024-02-15T14:07:50;15.60;99.90
20829;DHT22;10575;50.124;8.582;2024-02-15T14:10:18;15.60;99.90
20829;DHT22;10575;50.124;8.582;2024-02-15T14:12:47;15.60;99.90
20829;DHT22;10575;50.124;8.582;2024-02-15T14:15:15;15.70;99.90
20829;DHT22;10575;50.124;8.582;2024-02-15T14:17:42;15.70;99.90
20829;DHT22;10575;50.124;8.582;2024-02-15T14:20:10;15.70;99.90
20829;DHT22;10575;50.124;8.582;2024-02-15T14:22:39;15.70;99.90
20829;DHT22;10575;50.124;8.582;2024-02-15T14:25:05;15.60;99.90
20829;DHT22;10575;50.124;8.582;2024-02-15T14:27:31;15.60;99.90
20829;DHT22;10575;50.124;8.582;2024-02-15T14:29:57;15.60;99.90
20829;DHT22;10575;50.124;8.582;2024-02-15T14:32:41;15.50;99.90
20829;DHT22;10575;50.124;8.582;2024-02-15T14:35:28;15.50;99.90
20829;DHT22;10575;50.124;8.582;2024-02-15T14:37:55;15.50;99.90
20829;DHT22;10575;50.124;8.582;2024-02-15T14:40:24;15.50;99.90
20829;DHT22;10575;50.124;8.582;2024-02-15T14:42:49;15.40;99.90
20829;DHT22;10575;50.124;8.582;2024-02-15T14:45:15;15.40;99.90
20829;DHT22;10575;50.124;8.582;2024-02-15T14:47:40;15.40;99.90
20829;DHT22;10575;50.124;8.582;2024-02-15T14:50:08;15.40;99.90
20829;DHT22;10575;50.124;8.582;2024-02-15T14:52:37;15.30;99.90
20829;DHT22;10575;50.124;8.582;2024-02-15T14:55:06;15.30;99.90
20829;DHT22;10575;50.124;8.582;2024-02-15T14:57:33;15.30;99.90
20829;DHT22;10575;50.124;8.582;2024-02-15T14:59:59;15.30;99.90
20829;DHT22;10575;50.124;8.582;2024-02-15T15:02:25;15.20;99.90
20829;DHT22;10575;50.124;8.582;2024-02-15T15:04:51;15.20;99.90
20829;DHT22;10575;50.124;8.582;2024-02-15T15:07:35;15.20;99.90
20829;DHT22;10575;50.124;8.582;2024-02-15T15:10:18;15.10;99.90
20829;DHT22;10575;50.124;8.582;2024-02-15T15:13:03;15.10;99.90
20829;DHT22;10575;50.124;8.582;2024-02-15T15:15:28;15.10;99.90
20829;DHT22;10575;50.124;8.582;2024-02-15T15:17:54;15.00;99.90
20829;DHT22;10575;50.124;8.582;2024-02-15T15:20:20;15.00;99.90
20829;DHT22;10575;50.124;8.582;2024-02-15T15:22:46;14.90;99.90
20829;DHT22;10575;50.124;8.582;2024-02-15T15:25:12;14.90;99.90
20829;DHT22;10575;50.124;8.582;2024-02-15T15:27:38;14.90;99.90
20829;DHT22;10575;50.124;8.582;2024-02-15T15:30:05;14.80;99.90
20829;DHT22;10575;50.124;8.582;2024-02-15T15:32:31;14.80;99.90
20829;DHT22;10575;50.124;8.582;2024-02-15T15:34:56;14.80;99.90
20829;DHT22;10575;50.124;8.582;2024-02-15T15:37:22;14.80;99.90
20829;DHT22;10575;50.124;8.582;2024-02-15T15:39:48;14.80;99.90
20829;DHT22;10575;50.124;8.582;2024-02-15T15:42:15;14.80;99.90
20829;DHT22;10575;50.124;8.582;2024-02-15T15:44:41;14.70;99.90
20829;DHT22;10575;50.124;8.582;2024-02-15T15:47:06;14.70;99.90